4XCWR LLHZ-LLHZ

Flight info

Callsign 4XCWR
Flight time 0h 4m
Altitude 2500
Route TRAINING AREA
Aircraft C172/L-SD/C

Departure

Time 2026-05-07 19:20
Airport Herzliya Airport (LLHZ)

Arrival

Time 2026-05-07 19:25
Airport Herzliya Airport (LLHZ)
Time Latitude Longitude Altitude Speed Heading
2026-05-07 19:13 32.18073 34.83132 98 ft 0 kts 20°
2026-05-07 19:16 32.18075 34.83133 98 ft 4 kts 25°
2026-05-07 19:16 32.18067 34.83216 100 ft 16 kts 108°
2026-05-07 19:17 32.18016 34.83387 104 ft 27 kts 109°
2026-05-07 19:17 32.17957 34.83588 109 ft 23 kts 109°
2026-05-07 19:17 32.17912 34.83739 117 ft 16 kts 109°
2026-05-07 19:17 32.17883 34.83835 119 ft 7 kts 104°
2026-05-07 19:18 32.17882 34.83840 120 ft 0 kts 103°
2026-05-07 19:19 32.17884 34.83855 122 ft 9 kts 54°
2026-05-07 19:19 32.17924 34.83819 123 ft 20 kts 289°
2026-05-07 19:19 32.18035 34.83439 112 ft 72 kts 295°
2026-05-07 19:20 32.18218 34.82882 304 ft 73 kts 316°
2026-05-07 19:20 32.18645 34.82723 584 ft 70 kts 12°
2026-05-07 19:20 32.19088 34.82899 799 ft 76 kts 35°
2026-05-07 19:20 32.19266 34.83581 876 ft 100 kts 94°
2026-05-07 19:21 32.19056 34.84392 863 ft 103 kts 106°
2026-05-07 19:21 32.18623 34.84828 830 ft 86 kts 201°
2026-05-07 19:21 32.18089 34.84611 689 ft 81 kts 202°
2026-05-07 19:21 32.17798 34.84158 314 ft 73 kts 299°
2026-05-07 19:22 32.17927 34.83805 130 ft 67 kts 291°
2026-05-07 19:22 32.18055 34.83379 102 ft 60 kts 288°
2026-05-07 19:22 32.18223 34.82864 246 ft 69 kts 308°
2026-05-07 19:22 32.18622 34.82629 495 ft 68 kts
2026-05-07 19:23 32.19090 34.82761 747 ft 69 kts 16°
2026-05-07 19:23 32.19451 34.83176 868 ft 91 kts 70°
2026-05-07 19:23 32.19321 34.83999 843 ft 113 kts 110°
2026-05-07 19:23 32.18998 34.84838 844 ft 105 kts 112°
2026-05-07 19:24 32.18568 34.85382 800 ft 88 kts 176°
2026-05-07 19:24 32.17985 34.85287 614 ft 82 kts 202°
2026-05-07 19:24 32.17603 34.84901 413 ft 66 kts 284°
2026-05-07 19:24 32.17732 34.84395 294 ft 68 kts 306°
2026-05-07 19:25 32.17907 34.83868 142 ft 63 kts 301°
2026-05-07 19:25 32.18026 34.83484 105 ft 41 kts 286°
2026-05-07 19:25 32.18163 34.82995 156 ft 74 kts 296°
2026-05-07 19:25 32.18471 34.82572 399 ft 68 kts 354°
2026-05-07 19:26 32.18915 34.82712 677 ft 69 kts 27°
2026-05-07 19:26 32.19335 34.83043 881 ft 75 kts 30°
2026-05-07 19:26 32.19874 34.83389 890 ft 95 kts 21°
2026-05-07 19:26 32.20505 34.83715 873 ft 104 kts 19°
2026-05-07 19:27 32.21198 34.84010 836 ft 110 kts 17°
2026-05-07 19:27 32.21911 34.84306 815 ft 102 kts 20°
2026-05-07 19:27 32.22538 34.84589 879 ft 94 kts 19°
2026-05-07 19:27 32.23174 34.84848 815 ft 102 kts 16°
2026-05-07 19:28 32.23834 34.85052 819 ft 92 kts 12°
2026-05-07 19:28 32.24433 34.85211 876 ft 87 kts 11°
2026-05-07 19:28 32.24971 34.85346 1192 ft 68 kts 23°
2026-05-07 19:28 32.25450 34.85576 1344 ft 72 kts 24°
2026-05-07 19:29 32.25923 34.85755 1660 ft 69 kts
2026-05-07 19:29 32.26404 34.85841 1876 ft 71 kts
2026-05-07 19:29 32.26883 34.85919 2048 ft 74 kts
2026-05-07 19:29 32.27479 34.86016 2049 ft 92 kts 10°
2026-05-07 19:30 32.28069 34.86157 2065 ft 80 kts 13°
2026-05-07 19:30 32.28581 34.86342 1995 ft 78 kts 18°
2026-05-07 19:30 32.29119 34.86511 2047 ft 78 kts 355°
2026-05-07 19:30 32.29404 34.86020 2006 ft 101 kts 265°
2026-05-07 19:31 32.28830 34.85601 2008 ft 108 kts 185°
2026-05-07 19:31 32.28105 34.85512 2080 ft 105 kts 189°
2026-05-07 19:31 32.27372 34.85386 2041 ft 110 kts 185°
2026-05-07 19:31 32.26617 34.85294 2039 ft 106 kts 192°
2026-05-07 19:32 32.25895 34.85098 2032 ft 107 kts 197°
2026-05-07 19:32 32.25180 34.84908 1963 ft 103 kts 194°
2026-05-07 19:32 32.24487 34.84720 2000 ft 105 kts 194°
2026-05-07 19:32 32.23775 34.84502 2043 ft 107 kts 197°
2026-05-07 19:33 32.23047 34.84280 2017 ft 103 kts 198°
2026-05-07 19:33 32.22368 34.84073 1987 ft 101 kts 194°
2026-05-07 19:33 32.21722 34.83866 1941 ft 94 kts 200°
2026-05-07 19:33 32.21217 34.84127 1969 ft 97 kts 73°
2026-05-07 19:34 32.21776 34.84513 1976 ft 100 kts 13°
2026-05-07 19:34 32.22451 34.84679 1987 ft 105 kts 15°
2026-05-07 19:34 32.23151 34.84871 2077 ft 101 kts 11°
2026-05-07 19:34 32.23817 34.85006 2068 ft 93 kts 11°
2026-05-07 19:35 32.24439 34.85182 2055 ft 90 kts 13°
2026-05-07 19:35 32.25027 34.85361 1968 ft 85 kts 14°
2026-05-07 19:35 32.25573 34.85563 1931 ft 74 kts 16°
2026-05-07 19:35 32.26060 34.85669 1984 ft 73 kts
2026-05-07 19:36 32.26573 34.85742 1916 ft 76 kts
2026-05-07 19:36 32.27093 34.85845 1950 ft 85 kts 12°
2026-05-07 19:36 32.27630 34.85880 2195 ft 69 kts 342°
2026-05-07 19:36 32.28088 34.85843 2256 ft 79 kts 341°
2026-05-07 19:37 32.27808 34.85506 2363 ft 85 kts 175°
2026-05-07 19:37 32.27186 34.85781 1985 ft 140 kts 171°
2026-05-07 19:37 32.26465 34.86125 1970 ft 120 kts 169°
2026-05-07 19:37 32.25729 34.85747 2001 ft 94 kts 277°
2026-05-07 19:38 32.26159 34.85773 2213 ft 82 kts 36°
2026-05-07 19:38 32.26679 34.85985 2273 ft 85 kts 17°
2026-05-07 19:38 32.27150 34.85826 2297 ft 101 kts 264°
2026-05-07 19:38 32.26522 34.85518 2384 ft 114 kts 191°
2026-05-07 19:39 32.25835 34.85667 2506 ft 91 kts 121°
2026-05-07 19:39 32.25937 34.86290 2209 ft 98 kts 22°
2026-05-07 19:39 32.26516 34.86560 2246 ft 90 kts 21°
2026-05-07 19:39 32.26998 34.86842 2416 ft 39 kts 10°
2026-05-07 19:40 32.27536 34.86791 2165 ft 80 kts
2026-05-07 19:40 32.28101 34.86826 2342 ft 91 kts 337°
2026-05-07 19:40 32.27955 34.86176 2324 ft 126 kts 193°
2026-05-07 19:40 32.27350 34.86032 2594 ft 56 kts 188°
2026-05-07 19:41 32.26696 34.85832 2384 ft 88 kts 204°
2026-05-07 19:41 32.26158 34.85544 2092 ft 91 kts 231°
2026-05-07 19:41 32.26060 34.84863 1727 ft 85 kts 282°
2026-05-07 19:41 32.25781 34.84386 1105 ft 99 kts 143°
2026-05-07 19:42 32.25440 34.84940 519 ft 104 kts 197°
2026-05-07 19:42 32.24785 34.84876 765 ft 90 kts 158°
2026-05-07 19:42 32.24569 34.85469 901 ft 85 kts 57°
2026-05-07 19:42 32.25047 34.85742 1135 ft 76 kts 11°
2026-05-07 19:43 32.25612 34.85884 1315 ft 92 kts 10°
2026-05-07 19:43 32.26190 34.86027 1452 ft 74 kts 17°
2026-05-07 19:43 32.26620 34.86202 1425 ft 59 kts 13°
2026-05-07 19:43 32.27041 34.86274 1393 ft 61 kts
2026-05-07 19:44 32.27321 34.86589 1308 ft 63 kts 81°
2026-05-07 19:44 32.26997 34.87058 1217 ft 89 kts 163°
2026-05-07 19:44 32.26437 34.86956 1189 ft 82 kts 217°
2026-05-07 19:44 32.26119 34.86459 1135 ft 71 kts 275°
2026-05-07 19:45 32.26294 34.85998 1128 ft 60 kts 322°
2026-05-07 19:45 32.26638 34.85602 1017 ft 88 kts 324°
2026-05-07 19:45 32.27151 34.85226 1173 ft 92 kts 344°
2026-05-07 19:45 32.27800 34.85165 1301 ft 98 kts 29°
2026-05-07 19:46 32.27807 34.85896 1299 ft 111 kts 140°
2026-05-07 19:46 32.27027 34.86243 1204 ft 125 kts 162°
2026-05-07 19:46 32.26195 34.86524 1187 ft 124 kts 168°
2026-05-07 19:46 32.25344 34.86660 1193 ft 123 kts 172°
2026-05-07 19:47 32.24500 34.86795 1190 ft 119 kts 172°
2026-05-07 19:47 32.23727 34.87057 1229 ft 113 kts 156°
2026-05-07 19:47 32.23008 34.87429 1125 ft 119 kts 153°
2026-05-07 19:47 32.22326 34.87887 1171 ft 112 kts 151°
2026-05-07 19:48 32.21605 34.87802 1199 ft 111 kts 226°
2026-05-07 19:48 32.21073 34.87120 1195 ft 117 kts 237°
2026-05-07 19:48 32.20592 34.86348 1196 ft 112 kts 241°
2026-05-07 19:48 32.20066 34.85765 1170 ft 104 kts 206°
2026-05-07 19:49 32.19377 34.85581 1116 ft 97 kts 192°
2026-05-07 19:49 32.18706 34.85412 917 ft 95 kts 194°
2026-05-07 19:49 32.18099 34.85258 634 ft 89 kts 198°
2026-05-07 19:49 32.17613 34.84929 378 ft 66 kts 284°
2026-05-07 19:50 32.17748 34.84407 264 ft 70 kts 295°
2026-05-07 19:50 32.17915 34.83849 129 ft 64 kts 295°
2026-05-07 19:50 32.18022 34.83481 100 ft 24 kts 292°
2026-05-07 19:50 32.18058 34.83359 96 ft 12 kts 281°
2026-05-07 19:51 32.18039 34.83305 97 ft 9 kts 288°
2026-05-07 19:51 32.18042 34.83295 97 ft 0 kts 290°
2026-05-07 19:51 32.18051 34.83266 96 ft 9 kts 288°
2026-05-07 19:52 32.18082 34.83162 94 ft 17 kts 289°
2026-05-07 19:52 32.18124 34.83034 91 ft 16 kts 301°
2026-05-07 19:52 32.18168 34.82918 89 ft 15 kts 288°
2026-05-07 19:52 32.18194 34.82851 92 ft 6 kts 350°
2026-05-07 19:53 32.18212 34.82838 89 ft 0 kts 284°